Time;durP1;ratioP1;P1;durP2;ratioP2;P2;SDS_P1;SDS_P2;PMS_P1;PMS_P2;Temp;Humidity;BMP_temperature;BMP_pressure;BME280_temperature;BME280_humidity;BME280_pressure;Samples;Min_cycle;Max_cycle;Signal;HPM_P1;HPM_P2
2021/07/12 00:00:51;;;;;;;2.63;1.60;;;19.50;1.00;;;;;;5031852;28;20526;-82
2021/07/12 00:03:20;;;;;;;2.40;1.20;;;19.50;1.00;;;;;;5035191;28;20477;-80
2021/07/12 00:05:48;;;;;;;2.20;1.33;;;19.50;1.00;;;;;;5034665;28;20455;-81
2021/07/12 00:08:16;;;;;;;1.80;1.30;;;19.40;1.00;;;;;;5036680;28;20514;-81
2021/07/12 00:10:45;;;;;;;1.50;1.40;;;19.40;1.00;;;;;;5034861;28;20522;-82
2021/07/12 00:13:13;;;;;;;1.33;1.23;;;19.40;1.00;;;;;;5031178;28;20456;-82
2021/07/12 00:15:42;;;;;;;2.80;1.70;;;19.40;1.00;;;;;;5033357;28;20472;-81
2021/07/12 00:18:10;;;;;;;1.67;1.43;;;19.40;1.00;;;;;;5029176;28;20967;-82
2021/07/12 00:20:38;;;;;;;1.83;1.30;;;19.30;1.00;;;;;;5031990;28;20478;-80
2021/07/12 00:23:07;;;;;;;3.17;1.70;;;19.30;1.00;;;;;;5051601;28;20444;-81
2021/07/12 00:25:35;;;;;;;3.43;1.50;;;19.30;1.00;;;;;;5034985;28;20806;-80
2021/07/12 00:28:06;;;;;;;2.03;1.50;;;19.30;1.00;;;;;;5048327;28;20453;-82
2021/07/12 00:30:34;;;;;;;2.80;2.60;;;19.20;1.00;;;;;;5030035;28;20578;-82
2021/07/12 00:33:03;;;;;;;2.27;1.57;;;19.20;1.00;;;;;;5038319;28;21054;-82
2021/07/12 00:35:31;;;;;;;2.27;2.07;;;19.20;1.00;;;;;;5035067;28;20987;-83
2021/07/12 00:37:59;;;;;;;1.63;1.50;;;19.30;1.00;;;;;;5032755;28;20438;-82
2021/07/12 00:40:28;;;;;;;2.40;1.60;;;19.20;1.00;;;;;;5021840;28;21060;-83
2021/07/12 00:42:57;;;;;;;4.00;1.37;;;19.20;1.00;;;;;;5029583;28;20513;-82
2021/07/12 00:45:29;;;;;;;1.40;1.30;;;19.10;1.00;;;;;;5028888;28;20468;-83
2021/07/12 00:47:57;;;;;;;1.43;1.33;;;19.10;1.00;;;;;;5027997;28;20452;-83
2021/07/12 00:50:33;;;;;;;1.50;1.37;;;19.20;1.00;;;;;;5023018;28;20445;-83
2021/07/12 00:53:02;;;;;;;1.87;1.43;;;19.10;1.00;;;;;;5029331;28;20450;-83
2021/07/12 00:55:32;;;;;;;1.50;1.40;;;19.10;1.00;;;;;;5022313;28;20475;-82
2021/07/12 00:58:02;;;;;;;1.27;1.17;;;19.00;1.00;;;;;;5024244;28;21314;-84
2021/07/12 01:00:32;;;;;;;1.90;1.73;;;19.00;1.00;;;;;;5043835;28;20459;-83
2021/07/12 01:03:01;;;;;;;2.60;2.13;;;19.00;1.00;;;;;;5018777;28;20460;-83
2021/07/12 01:05:31;;;;;;;1.63;1.40;;;19.00;1.00;;;;;;5021562;28;20546;-83
2021/07/12 01:08:00;;;;;;;1.57;1.47;;;19.00;1.00;;;;;;5026776;28;20881;-84
2021/07/12 01:10:29;;;;;;;1.83;1.73;;;19.00;1.00;;;;;;5025150;28;20506;-83
2021/07/12 01:13:27;;;;;;;1.77;1.63;;;19.00;1.00;;;;;;5047075;28;20452;-84
2021/07/12 01:16:08;;;;;;;1.20;1.10;;;19.00;1.00;;;;;;5026096;28;20568;-83
2021/07/12 01:18:44;;;;;;;1.50;1.40;;;19.00;1.00;;;;;;5023178;28;20460;-84
2021/07/12 01:21:50;;;;;;;2.67;1.63;;;19.00;1.00;;;;;;5017191;28;20507;-85
2021/07/12 01:25:03;;;;;;;4.63;1.47;;;19.00;1.00;;;;;;5027014;28;20881;-82
2021/07/12 01:28:03;;;;;;;4.83;1.40;;;19.00;1.00;;;;;;5010399;28;20459;-84
2021/07/12 01:30:49;;;;;;;1.40;1.30;;;18.90;1.00;;;;;;5026131;28;20991;-81
2021/07/12 01:33:21;;;;;;;1.83;1.40;;;18.90;1.00;;;;;;5029713;28;21328;-84
2021/07/12 01:35:57;;;;;;;2.07;1.30;;;18.80;1.00;;;;;;5028921;28;20988;-85
2021/07/12 01:38:36;;;;;;;1.70;1.43;;;18.80;1.00;;;;;;5023525;28;20509;-85
2021/07/12 01:41:11;;;;;;;1.57;1.30;;;18.80;1.00;;;;;;5025183;28;20462;-84
2021/07/12 01:43:44;;;;;;;1.90;1.80;;;18.80;1.00;;;;;;5024062;28;20532;-84
2021/07/12 01:46:20;;;;;;;1.73;1.23;;;18.70;1.00;;;;;;5022814;28;20456;-85
2021/07/12 01:48:58;;;;;;;1.60;1.50;;;18.70;1.00;;;;;;5023813;28;20535;-84
2021/07/12 01:51:38;;;;;;;1.73;1.33;;;18.70;1.00;;;;;;5027411;28;21145;-85
2021/07/12 01:54:13;;;;;;;1.73;1.33;;;18.70;1.00;;;;;;5026617;28;20509;-84
2021/07/12 01:56:47;;;;;;;1.70;1.60;;;18.60;1.00;;;;;;5025355;28;20561;-84
2021/07/12 01:59:20;;;;;;;2.40;1.30;;;18.60;1.00;;;;;;5031750;28;20502;-83
2021/07/12 02:01:50;;;;;;;3.67;1.40;;;18.60;1.00;;;;;;5024007;28;20517;-84
2021/07/12 02:04:25;;;;;;;1.30;1.20;;;18.60;1.00;;;;;;5019996;28;20740;-82
2021/07/12 02:06:54;;;;;;;1.50;1.40;;;18.60;1.00;;;;;;5026911;28;20454;-84
2021/07/12 02:09:23;;;;;;;2.30;2.10;;;18.50;1.00;;;;;;5024082;28;20463;-83
2021/07/12 02:11:54;;;;;;;1.83;1.40;;;18.50;1.00;;;;;;5026098;28;20458;-84
2021/07/12 02:14:24;;;;;;;1.90;1.27;;;18.50;1.00;;;;;;5018091;28;20501;-82
2021/07/12 02:16:54;;;;;;;2.20;1.33;;;18.50;1.00;;;;;;5027543;28;20483;-83
2021/07/12 02:19:24;;;;;;;1.53;1.37;;;18.50;1.00;;;;;;5023882;28;20460;-83
2021/07/12 02:21:53;;;;;;;1.97;1.30;;;18.40;1.00;;;;;;5023483;28;20513;-83
2021/07/12 02:24:23;;;;;;;1.40;1.30;;;18.50;1.00;;;;;;5023683;28;20538;-85
2021/07/12 02:26:53;;;;;;;1.90;1.50;;;18.40;1.00;;;;;;5026561;28;21124;-83
2021/07/12 02:29:22;;;;;;;1.50;1.40;;;18.40;1.00;;;;;;5025863;28;20436;-84
2021/07/12 02:31:51;;;;;;;1.67;1.33;;;18.40;1.00;;;;;;5015455;28;20460;-84
2021/07/12 02:34:20;;;;;;;2.27;1.23;;;18.40;1.00;;;;;;5022923;28;20479;-84
2021/07/12 02:36:51;;;;;;;3.40;1.50;;;18.40;1.00;;;;;;5026997;28;20464;-84
2021/07/12 02:39:19;;;;;;;2.43;1.20;;;18.40;1.00;;;;;;5023413;28;20454;-83
2021/07/12 02:41:48;;;;;;;2.23;1.27;;;18.30;1.00;;;;;;5018317;28;20444;-84
2021/07/12 02:44:18;;;;;;;1.63;1.27;;;18.30;1.00;;;;;;5024446;28;20472;-84
2021/07/12 02:46:46;;;;;;;1.60;1.50;;;18.30;1.00;;;;;;5027275;28;20505;-82
2021/07/12 02:49:14;;;;;;;2.10;1.27;;;18.30;1.00;;;;;;5027363;28;20506;-83
2021/07/12 02:51:45;;;;;;;1.80;1.23;;;18.30;1.00;;;;;;5025751;28;21020;-83
2021/07/12 02:54:19;;;;;;;2.10;1.53;;;18.30;1.00;;;;;;5018870;28;20542;-82
2021/07/12 02:56:47;;;;;;;1.43;1.30;;;18.30;1.00;;;;;;5018960;28;20467;-83
2021/07/12 02:59:16;;;;;;;2.60;1.53;;;18.20;1.00;;;;;;5022985;28;20450;-83
2021/07/12 03:01:44;;;;;;;1.43;1.33;;;18.20;1.00;;;;;;5020704;28;20456;-84
2021/07/12 03:04:12;;;;;;;1.57;1.47;;;18.20;1.00;;;;;;5015724;28;21378;-83
2021/07/12 03:06:41;;;;;;;2.03;1.47;;;18.10;1.00;;;;;;5019429;28;20459;-83
2021/07/12 03:09:14;;;;;;;1.50;1.23;;;18.10;1.00;;;;;;5022881;28;20459;-83
2021/07/12 03:11:47;;;;;;;1.83;1.40;;;18.10;1.00;;;;;;5027321;28;20509;-83
2021/07/12 03:14:20;;;;;;;2.27;1.33;;;18.10;1.00;;;;;;5023893;28;21003;-83
2021/07/12 03:16:51;;;;;;;1.50;1.30;;;18.20;1.00;;;;;;5026132;28;20503;-83
2021/07/12 03:19:25;;;;;;;2.37;1.30;;;18.20;1.00;;;;;;5018061;28;20457;-83
2021/07/12 03:21:55;;;;;;;1.40;1.30;;;18.10;1.00;;;;;;5023803;28;20517;-83
2021/07/12 03:24:29;;;;;;;4.30;1.30;;;18.20;1.00;;;;;;5026065;28;21603;-84
2021/07/12 03:26:59;;;;;;;2.03;1.40;;;18.10;1.00;;;;;;5027704;28;20496;-84
2021/07/12 03:29:30;;;;;;;2.20;1.33;;;18.10;1.00;;;;;;5023302;28;20457;-83
2021/07/12 03:32:00;;;;;;;1.33;1.23;;;18.10;1.00;;;;;;5026382;28;20539;-82
2021/07/12 03:34:29;;;;;;;3.00;1.27;;;18.10;1.00;;;;;;5019661;28;20511;-83
2021/07/12 03:36:59;;;;;;;2.17;1.97;;;18.00;1.00;;;;;;5018394;28;20475;-84
2021/07/12 03:39:29;;;;;;;2.97;1.30;;;18.00;1.00;;;;;;5023160;28;21009;-84
2021/07/12 03:41:59;;;;;;;1.40;1.23;;;18.00;1.00;;;;;;5027722;28;20451;-84
2021/07/12 03:44:27;;;;;;;3.60;2.00;;;17.90;1.00;;;;;;5027170;28;20557;-84
2021/07/12 03:46:55;;;;;;;2.73;1.60;;;17.90;1.00;;;;;;5020583;28;20467;-84
2021/07/12 03:49:23;;;;;;;3.50;1.70;;;17.90;1.00;;;;;;5019517;28;21021;-83
2021/07/12 03:51:54;;;;;;;1.67;1.57;;;17.90;1.00;;;;;;5030927;28;20536;-81
2021/07/12 03:54:22;;;;;;;2.57;2.10;;;17.90;1.00;;;;;;5031150;28;20594;-84
2021/07/12 03:56:52;;;;;;;1.97;1.77;;;17.90;1.00;;;;;;5028825;28;20463;-79
2021/07/12 03:59:20;;;;;;;1.93;1.43;;;17.90;1.00;;;;;;5022278;28;20455;-81
2021/07/12 04:01:48;;;;;;;2.27;1.50;;;17.90;1.00;;;;;;5031200;28;20438;-82
2021/07/12 04:04:16;;;;;;;1.63;1.53;;;17.90;1.00;;;;;;5020745;28;20515;-83
2021/07/12 04:06:44;;;;;;;1.70;1.60;;;17.90;1.00;;;;;;5024951;28;20883;-83
2021/07/12 04:09:13;;;;;;;3.13;1.50;;;17.90;1.00;;;;;;5020203;28;20454;-83
2021/07/12 04:11:41;;;;;;;2.50;2.30;;;17.90;1.00;;;;;;5027671;28;20454;-83
2021/07/12 04:14:12;;;;;;;2.23;1.80;;;17.90;1.00;;;;;;5024107;28;20473;-82
2021/07/12 04:16:41;;;;;;;1.70;1.60;;;17.90;1.50;;;;;;5028181;28;20462;-83
2021/07/12 04:19:09;;;;;;;2.13;1.90;;;17.90;24.80;;;;;;5031145;28;20481;-84
2021/07/12 04:21:37;;;;;;;2.90;1.50;;;17.90;33.40;;;;;;5032520;28;20450;-84
2021/07/12 04:24:05;;;;;;;2.07;1.50;;;17.90;61.40;;;;;;5026762;28;20472;-84
2021/07/12 04:26:33;;;;;;;1.87;1.77;;;17.90;56.40;;;;;;5030772;28;20467;-82
2021/07/12 04:29:02;;;;;;;3.90;1.67;;;17.90;85.70;;;;;;5029091;28;20471;-82
2021/07/12 04:31:31;;;;;;;1.80;1.57;;;17.90;99.90;;;;;;5032894;28;20453;-83
2021/07/12 04:33:59;;;;;;;1.70;1.60;;;17.80;99.90;;;;;;5027597;28;20472;-83
2021/07/12 04:36:27;;;;;;;1.97;1.47;;;17.80;99.90;;;;;;5042425;28;20466;-84
2021/07/12 04:38:59;;;;;;;1.80;1.70;;;17.90;94.00;;;;;;5023466;28;20496;-83
2021/07/12 04:41:27;;;;;;;1.70;1.50;;;17.90;99.90;;;;;;5028587;28;20464;-83
2021/07/12 04:43:55;;;;;;;1.57;1.47;;;18.00;99.90;;;;;;5023589;28;20474;-82
2021/07/12 04:46:23;;;;;;;1.80;1.70;;;18.00;99.90;;;;;;5024336;28;20497;-82
2021/07/12 04:48:53;;;;;;;1.63;1.53;;;18.00;99.90;;;;;;5027582;28;21326;-83
2021/07/12 04:51:21;;;;;;;2.77;2.33;;;18.00;99.90;;;;;;5027547;28;20461;-83
2021/07/12 04:53:50;;;;;;;2.27;1.90;;;18.00;99.90;;;;;;5022450;28;20473;-81
2021/07/12 04:56:18;;;;;;;1.70;1.60;;;18.10;99.90;;;;;;5022934;28;20458;-84
2021/07/12 04:58:47;;;;;;;2.40;2.20;;;18.10;99.90;;;;;;5049767;28;20546;-84
2021/07/12 05:01:16;;;;;;;2.50;2.17;;;18.10;99.90;;;;;;5026147;28;20461;-79
2021/07/12 05:03:45;;;;;;;2.60;2.00;;;18.10;99.90;;;;;;5023731;28;20554;-72
2021/07/12 05:06:14;;;;;;;3.27;2.67;;;18.10;99.90;;;;;;5025466;28;20523;-75
2021/07/12 05:08:43;;;;;;;2.93;2.60;;;18.00;99.90;;;;;;5023254;28;20939;-74
2021/07/12 05:11:11;;;;;;;3.50;3.20;;;17.90;99.90;;;;;;5025862;28;20465;-72
2021/07/12 05:13:41;;;;;;;2.73;2.50;;;17.90;1.00;;;;;;5023582;28;20540;-75
2021/07/12 05:16:11;;;;;;;2.20;2.00;;;17.90;1.00;;;;;;5024610;28;20458;-76
2021/07/12 05:18:39;;;;;;;2.00;1.90;;;17.90;1.00;;;;;;5023032;28;20481;-86
2021/07/12 05:21:08;;;;;;;2.77;2.13;;;18.00;1.00;;;;;;5033601;28;20463;-85
2021/07/12 05:23:38;;;;;;;2.47;2.27;;;18.10;1.00;;;;;;5025955;28;20820;-85
2021/07/12 05:26:06;;;;;;;3.60;2.00;;;18.30;1.00;;;;;;5021368;28;20440;-84
2021/07/12 05:28:37;;;;;;;2.00;1.90;;;18.30;99.90;;;;;;5030103;28;20435;-83
2021/07/12 05:31:06;;;;;;;2.27;2.07;;;18.50;99.90;;;;;;5028770;28;20868;-84
2021/07/12 05:33:35;;;;;;;2.50;2.30;;;18.50;99.90;;;;;;5025245;28;20429;-83
2021/07/12 05:36:03;;;;;;;2.10;2.00;;;18.50;1.00;;;;;;5027714;28;20200;-86
2021/07/12 05:38:31;;;;;;;1.83;1.67;;;18.60;1.00;;;;;;5029580;28;20475;-85
2021/07/12 05:41:01;;;;;;;2.37;1.77;;;18.70;1.00;;;;;;5032520;28;20444;-81
2021/07/12 05:43:29;;;;;;;2.60;2.13;;;18.70;1.00;;;;;;5023872;28;20964;-84
2021/07/12 05:45:57;;;;;;;2.67;2.27;;;18.80;1.00;;;;;;5021297;28;20453;-83
2021/07/12 05:48:25;;;;;;;2.17;1.77;;;18.80;1.00;;;;;;5020459;28;20956;-83
2021/07/12 05:50:53;;;;;;;2.60;2.40;;;18.90;1.00;;;;;;5025680;28;20448;-81
2021/07/12 05:53:21;;;;;;;2.07;1.47;;;18.90;1.00;;;;;;5029448;28;20449;-81
2021/07/12 05:55:50;;;;;;;1.73;1.63;;;18.90;1.00;;;;;;5026034;28;20488;-81
2021/07/12 05:58:19;;;;;;;1.80;1.70;;;19.00;1.00;;;;;;5029190;28;20486;-80
2021/07/12 06:00:47;;;;;;;2.73;1.43;;;19.00;1.00;;;;;;5021241;28;21055;-82
2021/07/12 06:03:15;;;;;;;1.40;1.30;;;19.00;99.90;;;;;;5025377;28;20451;-84
2021/07/12 06:05:43;;;;;;;1.30;1.20;;;19.10;99.90;;;;;;5030310;28;20561;-82
2021/07/12 06:08:12;;;;;;;1.23;1.13;;;19.10;99.90;;;;;;5032264;28;20448;-81
2021/07/12 06:10:40;;;;;;;1.33;1.23;;;19.20;1.00;;;;;;5031179;28;20456;-81
2021/07/12 06:13:08;;;;;;;2.37;1.30;;;19.20;99.90;;;;;;5030712;28;20879;-82
2021/07/12 06:15:39;;;;;;;1.47;1.37;;;19.20;99.90;;;;;;5022484;28;20510;-82
2021/07/12 06:18:12;;;;;;;1.40;1.30;;;19.30;99.90;;;;;;5029431;28;20822;-83
2021/07/12 06:20:41;;;;;;;1.23;1.13;;;19.40;99.90;;;;;;5030194;28;20204;-83
2021/07/12 06:23:10;;;;;;;1.40;1.30;;;19.40;99.90;;;;;;5029751;28;20460;-82
2021/07/12 06:25:39;;;;;;;1.20;1.10;;;19.50;99.90;;;;;;5022150;28;20465;-82
2021/07/12 06:28:08;;;;;;;1.20;1.13;;;19.60;99.90;;;;;;5031649;28;20447;-83
2021/07/12 06:30:38;;;;;;;1.20;1.10;;;19.70;99.90;;;;;;5032763;28;20452;-83
2021/07/12 06:33:06;;;;;;;1.70;1.10;;;19.70;99.90;;;;;;5034008;28;20869;-83
2021/07/12 06:35:34;;;;;;;1.40;1.27;;;19.70;99.90;;;;;;5033078;28;20461;-83
2021/07/12 06:38:02;;;;;;;1.33;1.23;;;19.80;97.20;;;;;;5031741;28;21029;-83
2021/07/12 06:40:30;;;;;;;1.10;1.10;;;19.80;49.30;;;;;;5028222;28;20849;-83
2021/07/12 06:42:58;;;;;;;2.13;1.30;;;19.80;51.20;;;;;;5040829;28;20452;-83
2021/07/12 06:45:26;;;;;;;1.40;1.27;;;19.80;90.50;;;;;;5031546;28;20530;-84
2021/07/12 06:47:56;;;;;;;1.33;1.23;;;19.80;1.00;;;;;;5028261;28;20528;-83
2021/07/12 06:50:25;;;;;;;1.40;1.30;;;20.00;34.60;;;;;;5029474;28;20202;-83
2021/07/12 06:52:53;;;;;;;2.53;1.30;;;20.10;34.60;;;;;;5030753;28;20456;-82
2021/07/12 06:55:21;;;;;;;1.60;1.20;;;20.10;1.00;;;;;;5029113;28;20472;-81
2021/07/12 06:57:49;;;;;;;1.60;1.50;;;20.20;1.00;;;;;;5027837;28;20867;-82
2021/07/12 07:00:19;;;;;;;0.90;0.90;;;20.20;1.00;;;;;;5030064;28;20476;-82
2021/07/12 07:02:47;;;;;;;1.40;1.30;;;20.30;1.00;;;;;;5029818;28;20471;-82
2021/07/12 07:05:16;;;;;;;1.40;1.30;;;20.30;1.00;;;;;;5030953;28;20207;-82
2021/07/12 07:07:44;;;;;;;1.70;1.10;;;20.40;1.00;;;;;;5031104;28;20452;-82
2021/07/12 07:10:13;;;;;;;1.20;1.10;;;20.40;1.00;;;;;;5030106;28;20948;-81
2021/07/12 07:12:41;;;;;;;2.10;1.40;;;20.40;1.00;;;;;;5025674;28;20528;-82
2021/07/12 07:15:10;;;;;;;2.17;1.23;;;20.40;1.00;;;;;;5030753;28;20467;-81
2021/07/12 07:17:39;;;;;;;1.10;1.00;;;20.40;1.00;;;;;;5031067;28;20460;-84
2021/07/12 07:20:08;;;;;;;1.40;1.17;;;20.50;1.00;;;;;;5029686;28;20473;-83
2021/07/12 07:22:38;;;;;;;1.20;1.10;;;20.50;1.00;;;;;;5028552;28;20739;-84
2021/07/12 07:25:07;;;;;;;1.00;0.90;;;20.50;1.00;;;;;;5029278;28;20468;-84
2021/07/12 07:27:40;;;;;;;1.23;1.13;;;20.60;1.00;;;;;;5029014;28;20440;-80
2021/07/12 07:30:09;;;;;;;1.10;1.00;;;20.70;1.00;;;;;;5028384;28;20444;-83
2021/07/12 07:32:37;;;;;;;1.30;1.20;;;20.80;1.00;;;;;;5029077;28;20452;-83
2021/07/12 07:35:07;;;;;;;1.77;1.67;;;20.90;1.00;;;;;;5029862;28;20472;-83
2021/07/12 07:37:37;;;;;;;1.30;1.20;;;21.00;5.10;;;;;;5027633;28;20483;-84
2021/07/12 07:40:08;;;;;;;2.20;1.00;;;21.00;17.40;;;;;;5029567;28;20480;-86
2021/07/12 07:42:37;;;;;;;1.23;1.10;;;21.10;63.20;;;;;;5028966;28;20504;-82
2021/07/12 07:45:07;;;;;;;1.37;1.20;;;21.20;93.20;;;;;;5029756;28;20473;-82
2021/07/12 07:47:36;;;;;;;1.27;1.17;;;21.20;40.80;;;;;;5030418;28;20507;-83
2021/07/12 07:50:20;;;;;;;1.33;1.20;;;21.30;1.00;;;;;;5012513;28;20457;-81
2021/07/12 07:52:50;;;;;;;1.30;1.20;;;21.30;1.00;;;;;;5033335;28;20463;-83
2021/07/12 07:55:18;;;;;;;5.17;1.30;;;21.30;1.00;;;;;;5024219;28;20993;-87
2021/07/12 07:57:46;;;;;;;1.30;1.20;;;21.30;1.00;;;;;;5031822;28;20441;-84
2021/07/12 08:00:18;;;;;;;1.13;1.13;;;21.30;1.00;;;;;;5030734;28;20481;-84
2021/07/12 08:02:46;;;;;;;1.30;1.20;;;21.40;1.00;;;;;;5020560;28;20460;-85
2021/07/12 08:05:14;;;;;;;1.50;1.37;;;21.40;1.00;;;;;;5025628;28;20480;-84
2021/07/12 08:07:42;;;;;;;1.23;1.13;;;21.50;1.00;;;;;;5044490;28;21007;-83
2021/07/12 08:10:15;;;;;;;1.33;1.13;;;21.50;1.00;;;;;;5023251;28;20449;-83
2021/07/12 08:12:44;;;;;;;1.27;1.10;;;21.60;1.00;;;;;;5031995;28;20525;-84
2021/07/12 08:15:14;;;;;;;1.50;1.40;;;21.60;1.00;;;;;;5032868;28;20539;-88
2021/07/12 08:17:42;;;;;;;1.50;1.20;;;21.70;1.00;;;;;;5031309;28;20452;-85
2021/07/12 08:20:13;;;;;;;2.10;1.10;;;21.80;1.00;;;;;;5028354;28;20478;-87
2021/07/12 08:22:49;;;;;;;1.63;1.53;;;21.90;1.00;;;;;;5017480;28;20457;-86
2021/07/12 08:25:20;;;;;;;1.47;1.37;;;21.90;1.00;;;;;;5010989;28;20512;-87
2021/07/12 08:27:49;;;;;;;1.87;1.30;;;22.00;1.00;;;;;;5023747;28;20464;-85
2021/07/12 08:30:18;;;;;;;1.20;1.10;;;21.90;1.00;;;;;;5032977;28;20873;-85
2021/07/12 08:32:46;;;;;;;1.40;1.10;;;22.00;1.00;;;;;;5032631;28;20456;-86
2021/07/12 08:35:16;;;;;;;2.07;1.07;;;22.00;1.00;;;;;;5029259;28;20530;-85
2021/07/12 08:37:49;;;;;;;1.00;0.90;;;22.00;1.00;;;;;;5024946;28;21008;-86
2021/07/12 08:40:20;;;;;;;1.70;1.20;;;22.00;1.00;;;;;;5028239;28;20476;-85
2021/07/12 08:42:51;;;;;;;1.03;1.00;;;22.00;1.00;;;;;;5035104;28;20452;-86
2021/07/12 08:45:20;;;;;;;1.20;1.10;;;22.00;1.00;;;;;;5030243;28;20886;-87
2021/07/12 08:47:48;;;;;;;1.27;1.10;;;22.10;1.00;;;;;;5030306;28;20541;-81
2021/07/12 08:50:16;;;;;;;1.60;1.30;;;22.10;1.00;;;;;;5030233;28;20451;-81
2021/07/12 08:52:45;;;;;;;0.87;0.87;;;22.20;1.00;;;;;;5031754;28;21028;-80
2021/07/12 08:55:13;;;;;;;1.27;1.17;;;22.30;1.00;;;;;;5045161;28;20483;-82
2021/07/12 08:57:56;;;;;;;1.17;1.07;;;22.30;1.00;;;;;;5026050;28;20530;-84
2021/07/12 09:00:37;;;;;;;1.20;1.10;;;22.30;1.00;;;;;;5034478;28;21283;-82
2021/07/12 09:03:19;;;;;;;1.20;1.10;;;22.40;1.00;;;;;;5030990;28;20484;-83
2021/07/12 09:06:03;;;;;;;1.40;1.23;;;22.40;1.00;;;;;;5021378;28;20977;-82
2021/07/12 09:08:51;;;;;;;1.57;1.10;;;22.40;1.00;;;;;;5032566;28;20834;-81
2021/07/12 09:11:23;;;;;;;1.30;1.20;;;22.40;1.00;;;;;;5026261;28;20456;-82
2021/07/12 09:13:55;;;;;;;2.80;1.30;;;22.50;1.00;;;;;;5032312;28;20468;-80
2021/07/12 09:16:33;;;;;;;1.30;1.20;;;22.60;1.00;;;;;;5029294;28;20462;-82
2021/07/12 09:19:07;;;;;;;3.80;2.23;;;22.60;1.00;;;;;;5032199;28;20970;-82
2021/07/12 09:21:39;;;;;;;3.13;1.47;;;22.60;1.00;;;;;;5028317;28;20477;-83
2021/07/12 09:24:16;;;;;;;1.50;1.40;;;22.60;1.00;;;;;;5032318;28;20452;-83
2021/07/12 09:26:46;;;;;;;1.57;1.20;;;22.70;1.00;;;;;;5031834;28;20804;-84
2021/07/12 09:29:17;;;;;;;16.77;1.67;;;22.80;1.00;;;;;;5031776;28;20448;-84
2021/07/12 09:31:45;;;;;;;1.30;1.10;;;22.80;1.00;;;;;;5014080;28;20472;-83
2021/07/12 09:34:14;;;;;;;1.30;1.20;;;22.90;1.00;;;;;;5023022;28;20517;-81
2021/07/12 09:36:42;;;;;;;1.63;1.53;;;22.90;1.00;;;;;;5031650;28;20448;-82
2021/07/12 09:39:32;;;;;;;1.50;1.30;;;23.00;1.00;;;;;;5029046;28;20453;-82
2021/07/12 09:42:03;;;;;;;1.30;1.17;;;23.00;1.00;;;;;;5021484;28;20884;-81
2021/07/12 09:44:34;;;;;;;0.97;0.90;;;23.00;1.00;;;;;;5019132;28;20467;-83
2021/07/12 09:47:08;;;;;;;1.67;1.27;;;23.10;1.00;;;;;;5031563;28;20539;-83
2021/07/12 09:49:37;;;;;;;1.33;1.10;;;23.10;1.00;;;;;;5023457;28;20458;-83
2021/07/12 09:52:09;;;;;;;1.23;1.13;;;23.20;1.00;;;;;;5011123;28;20443;-83
2021/07/12 09:54:39;;;;;;;1.30;1.07;;;23.20;1.00;;;;;;5012711;28;20358;-83
2021/07/12 09:57:11;;;;;;;1.20;1.10;;;23.20;1.00;;;;;;5024801;28;21032;-82
2021/07/12 09:59:54;;;;;;;1.37;1.27;;;23.30;1.00;;;;;;5028983;28;20472;-82
2021/07/12 10:02:25;;;;;;;4.77;1.43;;;23.30;1.00;;;;;;5027458;28;20461;-83
2021/07/12 10:04:58;;;;;;;1.30;1.20;;;23.40;99.90;;;;;;5031231;28;20486;-82
2021/07/12 10:07:26;;;;;;;1.30;1.20;;;23.40;1.00;;;;;;5027177;28;20586;-85
2021/07/12 10:09:56;;;;;;;1.43;1.20;;;23.40;99.90;;;;;;5023749;28;20456;-80
2021/07/12 10:12:25;;;;;;;2.93;1.07;;;23.50;99.90;;;;;;5024873;28;20445;-78
2021/07/12 10:14:56;;;;;;;1.30;1.20;;;23.60;99.90;;;;;;5027307;28;20480;-81
2021/07/12 10:17:24;;;;;;;1.20;1.10;;;23.60;99.90;;;;;;5010645;28;21143;-81
2021/07/12 10:19:56;;;;;;;1.20;1.10;;;23.60;99.90;;;;;;5028857;28;20448;-79
2021/07/12 10:22:25;;;;;;;1.37;1.27;;;23.70;99.90;;;;;;5020580;28;22419;-81
2021/07/12 10:24:53;;;;;;;1.10;1.10;;;23.70;99.90;;;;;;5027873;28;20476;-80
2021/07/12 10:27:26;;;;;;;1.63;1.20;;;23.70;99.90;;;;;;5029437;28;20443;-82
2021/07/12 10:29:58;;;;;;;1.33;1.10;;;23.80;99.90;;;;;;5031215;28;20959;-81
2021/07/12 10:32:27;;;;;;;0.97;0.90;;;23.70;99.90;;;;;;5031498;28;20498;-80
2021/07/12 10:34:57;;;;;;;1.40;1.30;;;23.70;99.90;;;;;;5030683;28;20506;-82
2021/07/12 10:37:28;;;;;;;4.13;1.30;;;23.70;99.90;;;;;;5016801;28;20457;-81
2021/07/12 10:40:19;;;;;;;1.77;1.10;;;23.70;99.90;;;;;;5028436;28;20468;-80
2021/07/12 10:42:55;;;;;;;0.97;0.97;;;23.70;99.90;;;;;;5029426;28;20460;-82
2021/07/12 10:45:50;;;;;;;1.20;1.10;;;23.70;99.90;;;;;;5021904;28;20480;-81
2021/07/12 10:48:19;;;;;;;1.20;1.03;;;23.70;99.90;;;;;;5028350;28;20482;-80
2021/07/12 10:50:50;;;;;;;1.23;1.13;;;23.60;99.90;;;;;;5028379;28;20527;-80
2021/07/12 10:53:38;;;;;;;2.07;1.10;;;23.70;99.90;;;;;;5030009;28;20441;-80
2021/07/12 10:56:12;;;;;;;2.40;1.10;;;23.70;99.90;;;;;;5027838;28;20464;-80
2021/07/12 10:58:53;;;;;;;1.17;1.10;;;23.80;99.90;;;;;;5029610;28;20842;-79
2021/07/12 11:01:43;;;;;;;0.97;0.97;;;23.80;99.90;;;;;;5025838;28;20994;-79
2021/07/12 11:04:40;;;;;;;1.10;1.00;;;23.80;99.90;;;;;;5025569;28;20472;-81
2021/07/12 11:07:10;;;;;;;0.83;0.83;;;23.80;99.90;;;;;;5009797;28;20826;-81
2021/07/12 11:09:47;;;;;;;1.50;1.00;;;23.80;99.90;;;;;;5025768;28;20551;-78
2021/07/12 11:12:36;;;;;;;1.27;1.03;;;23.80;99.90;;;;;;5017797;28;20524;-81
2021/07/12 11:15:16;;;;;;;1.30;1.20;;;23.80;99.90;;;;;;5028318;28;20500;-79
2021/07/12 11:18:02;;;;;;;1.27;1.13;;;23.80;99.90;;;;;;5023117;28;20468;-82
2021/07/12 11:20:46;;;;;;;1.73;1.20;;;23.80;99.90;;;;;;5026526;28;20916;-79
2021/07/12 11:23:39;;;;;;;1.23;1.20;;;23.90;99.90;;;;;;5009463;28;20445;-82
2021/07/12 11:26:50;;;;;;;1.00;1.00;;;23.90;99.90;;;;;;5025919;28;20484;-80
2021/07/12 11:29:28;;;;;;;1.07;1.07;;;24.00;99.90;;;;;;5022961;28;20551;-80
2021/07/12 11:31:59;;;;;;;1.33;1.10;;;24.10;99.90;;;;;;5021308;28;20494;-82
2021/07/12 11:34:32;;;;;;;1.07;1.07;;;24.10;99.90;;;;;;5027896;28;20999;-81
2021/07/12 11:37:01;;;;;;;1.60;1.20;;;24.10;99.90;;;;;;5031791;28;20514;-80
2021/07/12 11:39:42;;;;;;;0.80;0.80;;;24.20;99.90;;;;;;5029651;28;20487;-82
2021/07/12 11:42:24;;;;;;;0.90;0.90;;;24.20;99.90;;;;;;5031233;28;20490;-82
2021/07/12 11:45:01;;;;;;;1.10;1.03;;;24.40;99.90;;;;;;5028371;28;20825;-84
2021/07/12 11:47:31;;;;;;;1.10;1.00;;;24.30;99.90;;;;;;5013747;28;20445;-82
2021/07/12 11:50:04;;;;;;;1.40;1.10;;;24.20;99.90;;;;;;5012231;28;20503;-82
2021/07/12 11:52:34;;;;;;;1.77;1.00;;;24.30;99.90;;;;;;5013077;28;21186;-83
2021/07/12 11:55:07;;;;;;;2.20;1.03;;;24.40;99.90;;;;;;5025921;28;21134;-81
2021/07/12 11:57:37;;;;;;;1.10;1.00;;;24.30;99.90;;;;;;5031512;28;20521;-84
2021/07/12 12:00:09;;;;;;;1.00;0.93;;;24.30;99.90;;;;;;5026209;28;20456;-81
2021/07/12 12:02:37;;;;;;;1.30;1.20;;;24.30;99.90;;;;;;5027595;28;20460;-81
2021/07/12 12:05:11;;;;;;;1.00;1.00;;;24.30;99.90;;;;;;5028211;28;20473;-83
2021/07/12 12:07:41;;;;;;;1.00;1.00;;;24.40;99.90;;;;;;5033328;28;20460;-84
2021/07/12 12:10:16;;;;;;;1.30;1.20;;;24.30;99.90;;;;;;5026313;28;20747;-82
2021/07/12 12:12:47;;;;;;;1.00;1.00;;;24.40;99.90;;;;;;5026503;28;20464;-83
2021/07/12 12:15:22;;;;;;;2.50;1.40;;;24.50;99.90;;;;;;5023974;28;20819;-82
2021/07/12 12:17:53;;;;;;;1.30;1.20;;;24.40;99.90;;;;;;5031545;28;20519;-80
2021/07/12 12:20:28;;;;;;;1.27;1.17;;;24.50;99.90;;;;;;5031025;28;20441;-82
2021/07/12 12:23:06;;;;;;;1.77;1.33;;;24.50;99.90;;;;;;5028193;28;20472;-83
2021/07/12 12:25:38;;;;;;;1.20;1.10;;;24.50;99.90;;;;;;5045646;28;21007;-84
2021/07/12 12:28:06;;;;;;;2.87;2.57;;;24.50;99.90;;;;;;5030739;28;20444;-82
2021/07/12 12:30:36;;;;;;;1.30;1.10;;;24.60;99.90;;;;;;5030525;28;20464;-84
2021/07/12 12:33:05;;;;;;;1.63;1.53;;;24.60;99.90;;;;;;5043905;28;20539;-83
2021/07/12 12:35:34;;;;;;;1.37;1.23;;;24.70;99.90;;;;;;5043553;28;20472;-83
2021/07/12 12:38:14;;;;;;;1.30;1.17;;;24.70;99.90;;;;;;5035662;28;20773;-84
2021/07/12 12:40:43;;;;;;;1.07;1.07;;;24.80;99.90;;;;;;5036430;28;20436;-81
2021/07/12 12:43:14;;;;;;;1.00;1.00;;;24.80;99.90;;;;;;5025253;28;20519;-84
2021/07/12 12:45:49;;;;;;;1.20;1.10;;;24.80;99.90;;;;;;5030182;28;20476;-83
2021/07/12 12:48:35;;;;;;;2.23;1.17;;;24.80;99.90;;;;;;5029905;28;20460;-83
2021/07/12 12:51:30;;;;;;;1.40;1.20;;;24.80;99.90;;;;;;5028640;28;21095;-81
2021/07/12 12:54:12;;;;;;;1.17;1.07;;;24.80;99.90;;;;;;5030215;28;20571;-82
2021/07/12 12:56:49;;;;;;;1.20;1.10;;;24.80;99.90;;;;;;5033219;28;20940;-83
2021/07/12 12:59:18;;;;;;;1.20;1.10;;;24.90;99.90;;;;;;5033480;28;20994;-84
2021/07/12 13:01:47;;;;;;;1.33;1.23;;;24.90;99.90;;;;;;5030047;28;20469;-83
2021/07/12 13:04:18;;;;;;;1.20;1.10;;;24.90;99.90;;;;;;5045451;28;20659;-83
2021/07/12 13:06:54;;;;;;;1.90;1.07;;;25.00;99.90;;;;;;5032245;28;20544;-83
2021/07/12 13:09:30;;;;;;;1.40;1.30;;;25.00;99.90;;;;;;5027530;28;20530;-83
2021/07/12 13:12:10;;;;;;;1.20;1.10;;;24.90;99.90;;;;;;5033252;28;20860;-82
2021/07/12 13:14:39;;;;;;;3.50;1.27;;;25.00;99.90;;;;;;5034173;28;20475;-85
2021/07/12 13:17:10;;;;;;;1.23;1.13;;;24.90;99.90;;;;;;5042209;28;20465;-84